LVLRG KIND-KBAK
Flight info
| Callsign | LVLRG |
|---|---|
| Flight time | 0h 17m |
| Altitude | 5000 |
| Route | INDY3 SHB BA |
| Aircraft | B350/L-SDF/C |
Departure
| Time | 2026-05-05 23:32 |
|---|---|
| Airport | Indianapolis International Airport (KIND) |
Arrival
| Time | 2026-05-05 23:49 |
|---|---|
| Airport | Columbus Municipal Airport (KBAK) |
| Time | Latitude | Longitude | Altitude | Speed | Heading |
|---|---|---|---|---|---|
| 2026-05-05 23:04 | 39.72581 | -86.27193 | 792 ft | 0 kts | 237° |
| 2026-05-05 23:23 | 39.72581 | -86.27194 | 792 ft | 1 kts | 237° |
| 2026-05-05 23:23 | 39.72551 | -86.27212 | 792 ft | 7 kts | 180° |
| 2026-05-05 23:23 | 39.72515 | -86.27213 | 792 ft | 0 kts | 181° |
| 2026-05-05 23:24 | 39.72488 | -86.27215 | 792 ft | 10 kts | 187° |
| 2026-05-05 23:24 | 39.72407 | -86.27220 | 792 ft | 12 kts | 163° |
| 2026-05-05 23:24 | 39.72346 | -86.27152 | 791 ft | 11 kts | 133° |
| 2026-05-05 23:25 | 39.72293 | -86.27080 | 790 ft | 10 kts | 134° |
| 2026-05-05 23:25 | 39.72246 | -86.27019 | 789 ft | 8 kts | 134° |
| 2026-05-05 23:25 | 39.72209 | -86.26969 | 789 ft | 7 kts | 134° |
| 2026-05-05 23:25 | 39.72175 | -86.26926 | 788 ft | 7 kts | 147° |
| 2026-05-05 23:26 | 39.72123 | -86.26934 | 785 ft | 9 kts | 217° |
| 2026-05-05 23:26 | 39.72097 | -86.26964 | 785 ft | 0 kts | 224° |
| 2026-05-05 23:29 | 39.72090 | -86.26973 | 785 ft | 7 kts | 225° |
| 2026-05-05 23:30 | 39.72037 | -86.27061 | 786 ft | 9 kts | 284° |
| 2026-05-05 23:30 | 39.72050 | -86.27081 | 787 ft | 0 kts | 310° |
| 2026-05-05 23:31 | 39.72197 | -86.27279 | 789 ft | 71 kts | 314° |
| 2026-05-05 23:31 | 39.72689 | -86.27926 | 838 ft | 122 kts | 314° |
| 2026-05-05 23:31 | 39.73319 | -86.28764 | 1263 ft | 132 kts | 317° |
| 2026-05-05 23:32 | 39.73935 | -86.29630 | 1878 ft | 140 kts | 315° |
| 2026-05-05 23:32 | 39.74386 | -86.30315 | 2050 ft | 158 kts | 314° |
| 2026-05-05 23:32 | 39.75343 | -86.31820 | 2717 ft | 166 kts | 315° |
| 2026-05-05 23:32 | 39.76119 | -86.32991 | 3099 ft | 178 kts | 313° |
| 2026-05-05 23:33 | 39.76949 | -86.34212 | 3522 ft | 182 kts | 314° |
| 2026-05-05 23:33 | 39.77878 | -86.35493 | 3432 ft | 206 kts | 316° |
| 2026-05-05 23:33 | 39.78581 | -86.36403 | 3377 ft | 216 kts | 316° |
| 2026-05-05 23:33 | 39.79684 | -86.37824 | 3198 ft | 230 kts | 317° |
| 2026-05-05 23:34 | 39.80760 | -86.39415 | 3130 ft | 238 kts | 302° |
| 2026-05-05 23:34 | 39.81100 | -86.42157 | 3566 ft | 234 kts | 261° |
| 2026-05-05 23:34 | 39.80740 | -86.43475 | 3927 ft | 229 kts | 245° |
| 2026-05-05 23:34 | 39.79813 | -86.45228 | 3896 ft | 242 kts | 236° |
| 2026-05-05 23:35 | 39.78782 | -86.46987 | 3934 ft | 247 kts | 231° |
| 2026-05-05 23:35 | 39.77378 | -86.48224 | 4229 ft | 246 kts | 199° |
| 2026-05-05 23:35 | 39.75704 | -86.48210 | 4635 ft | 243 kts | 165° |
| 2026-05-05 23:35 | 39.74287 | -86.47014 | 4924 ft | 246 kts | 136° |
| 2026-05-05 23:36 | 39.73144 | -86.45377 | 4986 ft | 252 kts | 135° |
| 2026-05-05 23:36 | 39.71935 | -86.43656 | 4955 ft | 261 kts | 135° |
| 2026-05-05 23:36 | 39.70705 | -86.41919 | 5011 ft | 261 kts | 136° |
| 2026-05-05 23:36 | 39.69444 | -86.40194 | 4972 ft | 265 kts | 137° |
| 2026-05-05 23:37 | 39.68165 | -86.38469 | 4980 ft | 265 kts | 137° |
| 2026-05-05 23:37 | 39.66894 | -86.36749 | 5068 ft | 262 kts | 137° |
| 2026-05-05 23:37 | 39.65654 | -86.34995 | 5058 ft | 265 kts | 135° |
| 2026-05-05 23:37 | 39.64422 | -86.33187 | 5019 ft | 268 kts | 135° |
| 2026-05-05 23:38 | 39.63196 | -86.31370 | 5050 ft | 267 kts | 135° |
| 2026-05-05 23:38 | 39.61967 | -86.29571 | 5063 ft | 266 kts | 136° |
| 2026-05-05 23:38 | 39.60726 | -86.27784 | 5068 ft | 266 kts | 136° |
| 2026-05-05 23:38 | 39.59471 | -86.26015 | 5065 ft | 266 kts | 137° |
| 2026-05-05 23:39 | 39.58201 | -86.24245 | 5048 ft | 266 kts | 137° |
| 2026-05-05 23:39 | 39.56945 | -86.22503 | 5029 ft | 267 kts | 138° |
| 2026-05-05 23:39 | 39.55661 | -86.20766 | 5013 ft | 267 kts | 136° |
| 2026-05-05 23:39 | 39.54639 | -86.18757 | 4994 ft | 273 kts | 113° |
| 2026-05-05 23:40 | 39.54113 | -86.16392 | 4996 ft | 273 kts | 110° |
| 2026-05-05 23:40 | 39.53538 | -86.14043 | 4984 ft | 273 kts | 111° |
| 2026-05-05 23:40 | 39.52954 | -86.11737 | 5003 ft | 273 kts | 112° |
| 2026-05-05 23:40 | 39.52319 | -86.09426 | 5041 ft | 272 kts | 112° |
| 2026-05-05 23:41 | 39.51766 | -86.07079 | 5031 ft | 274 kts | 110° |
| 2026-05-05 23:41 | 39.51243 | -86.04695 | 5001 ft | 276 kts | 109° |
| 2026-05-05 23:41 | 39.50770 | -86.02290 | 4995 ft | 276 kts | 107° |
| 2026-05-05 23:41 | 39.50281 | -85.99911 | 4937 ft | 271 kts | 110° |
| 2026-05-05 23:42 | 39.49749 | -85.97566 | 4624 ft | 274 kts | 110° |
| 2026-05-05 23:42 | 39.49230 | -85.95157 | 4218 ft | 278 kts | 109° |
| 2026-05-05 23:42 | 39.48654 | -85.92784 | 3954 ft | 275 kts | 110° |
| 2026-05-05 23:42 | 39.48067 | -85.90425 | 3629 ft | 276 kts | 110° |
| 2026-05-05 23:43 | 39.47467 | -85.88072 | 3376 ft | 273 kts | 110° |
| 2026-05-05 23:43 | 39.46863 | -85.85766 | 3217 ft | 268 kts | 110° |
| 2026-05-05 23:43 | 39.46239 | -85.83510 | 3052 ft | 263 kts | 115° |
| 2026-05-05 23:43 | 39.45146 | -85.81682 | 3018 ft | 253 kts | 135° |
| 2026-05-05 23:44 | 39.43945 | -85.80072 | 3071 ft | 245 kts | 135° |
| 2026-05-05 23:44 | 39.42777 | -85.78476 | 3021 ft | 244 kts | 136° |
| 2026-05-05 23:44 | 39.41627 | -85.76893 | 3034 ft | 238 kts | 137° |
| 2026-05-05 23:44 | 39.40492 | -85.75380 | 3014 ft | 230 kts | 142° |
| 2026-05-05 23:45 | 39.39082 | -85.74599 | 3001 ft | 217 kts | 179° |
| 2026-05-05 23:45 | 39.37649 | -85.74917 | 2983 ft | 207 kts | 212° |
| 2026-05-05 23:45 | 39.36534 | -85.76055 | 2978 ft | 203 kts | 225° |
| 2026-05-05 23:45 | 39.35545 | -85.77292 | 2988 ft | 190 kts | 227° |
| 2026-05-05 23:46 | 39.34637 | -85.78486 | 2823 ft | 184 kts | 227° |
| 2026-05-05 23:46 | 39.33751 | -85.79659 | 2584 ft | 182 kts | 229° |
| 2026-05-05 23:46 | 39.32897 | -85.80852 | 2522 ft | 179 kts | 230° |
| 2026-05-05 23:46 | 39.32066 | -85.82063 | 2428 ft | 180 kts | 230° |
| 2026-05-05 23:47 | 39.31218 | -85.83172 | 2171 ft | 165 kts | 228° |
| 2026-05-05 23:47 | 39.30412 | -85.84132 | 1947 ft | 149 kts | 227° |
| 2026-05-05 23:47 | 39.29696 | -85.85030 | 1763 ft | 142 kts | 231° |
| 2026-05-05 23:47 | 39.29001 | -85.85934 | 1536 ft | 142 kts | 231° |
| 2026-05-05 23:48 | 39.28312 | -85.86823 | 1355 ft | 139 kts | 229° |
| 2026-05-05 23:48 | 39.27659 | -85.87750 | 1144 ft | 140 kts | 234° |
| 2026-05-05 23:48 | 39.26978 | -85.88561 | 966 ft | 126 kts | 229° |
| 2026-05-05 23:48 | 39.26404 | -85.89338 | 677 ft | 112 kts | 233° |
| 2026-05-05 23:49 | 39.25931 | -85.89978 | 658 ft | 83 kts | 235° |
| 2026-05-05 23:49 | 39.25587 | -85.90378 | 655 ft | 37 kts | 218° |
| 2026-05-05 23:49 | 39.25513 | -85.90460 | 654 ft | 8 kts | 131° |
| 2026-05-05 23:49 | 39.25475 | -85.90399 | 655 ft | 8 kts | 131° |
| 2026-05-05 23:50 | 39.25479 | -85.90359 | 655 ft | 5 kts | 44° |
| 2026-05-05 23:50 | 39.25542 | -85.90272 | 656 ft | 22 kts | 44° |
| 2026-05-05 23:50 | 39.25649 | -85.90126 | 657 ft | 21 kts | 56° |
| 2026-05-05 23:50 | 39.25692 | -85.89984 | 657 ft | 15 kts | 84° |
| 2026-05-05 23:51 | 39.25691 | -85.89878 | 657 ft | 9 kts | 89° |
| 2026-05-05 23:51 | 39.25662 | -85.89822 | 657 ft | 7 kts | 166° |
| 2026-05-05 23:51 | 39.25658 | -85.89821 | 657 ft | 0 kts | 169° |